sensor_id;sensor_type;location;lat;lon;timestamp;pressure;altitude;pressure_sealevel;temperature;humidity
60832;BME280;46665;51.558;-0.448;2023-09-18T00:01:08;99839.09;;;16.81;100.00
60832;BME280;46665;51.558;-0.448;2023-09-18T00:03:52;99831.25;;;16.46;100.00
60832;BME280;46665;51.558;-0.448;2023-09-18T00:06:36;99819.16;;;16.14;100.00
60832;BME280;46665;51.558;-0.448;2023-09-18T00:09:20;99816.09;;;15.94;100.00
60832;BME280;46665;51.558;-0.448;2023-09-18T00:12:04;99803.81;;;15.79;100.00
60832;BME280;46665;51.558;-0.448;2023-09-18T00:14:49;99795.78;;;15.74;100.00
60832;BME280;46665;51.558;-0.448;2023-09-18T00:17:33;99777.59;;;15.70;100.00
60832;BME280;46665;51.558;-0.448;2023-09-18T00:20:17;99761.13;;;15.70;100.00
60832;BME280;46665;51.558;-0.448;2023-09-18T00:23:02;99733.44;;;15.63;100.00
60832;BME280;46665;51.558;-0.448;2023-09-18T00:25:46;99710.34;;;15.64;100.00
60832;BME280;46665;51.558;-0.448;2023-09-18T00:28:30;99697.34;;;15.60;100.00
60832;BME280;46665;51.558;-0.448;2023-09-18T00:31:14;99714.09;;;15.59;100.00
60832;BME280;46665;51.558;-0.448;2023-09-18T00:33:58;99725.69;;;15.44;100.00
60832;BME280;46665;51.558;-0.448;2023-09-18T00:36:42;99737.06;;;15.33;100.00
60832;BME280;46665;51.558;-0.448;2023-09-18T00:39:26;99759.09;;;15.25;100.00
60832;BME280;46665;51.558;-0.448;2023-09-18T00:42:10;99767.94;;;15.22;100.00
60832;BME280;46665;51.558;-0.448;2023-09-18T00:44:57;99747.25;;;15.12;100.00
60832;BME280;46665;51.558;-0.448;2023-09-18T00:47:41;99760.78;;;15.08;100.00
60832;BME280;46665;51.558;-0.448;2023-09-18T00:50:26;99757.25;;;15.08;100.00
60832;BME280;46665;51.558;-0.448;2023-09-18T00:53:13;99753.25;;;15.05;100.00
60832;BME280;46665;51.558;-0.448;2023-09-18T00:56:00;99756.78;;;15.06;100.00
60832;BME280;46665;51.558;-0.448;2023-09-18T00:58:45;99753.91;;;15.02;100.00
60832;BME280;46665;51.558;-0.448;2023-09-18T01:01:30;99746.03;;;15.01;100.00
60832;BME280;46665;51.558;-0.448;2023-09-18T01:04:19;99737.28;;;15.07;100.00
60832;BME280;46665;51.558;-0.448;2023-09-18T01:07:04;99716.16;;;15.08;100.00
60832;BME280;46665;51.558;-0.448;2023-09-18T01:09:48;99699.84;;;15.11;100.00
60832;BME280;46665;51.558;-0.448;2023-09-18T01:12:53;99683.19;;;15.16;100.00
60832;BME280;46665;51.558;-0.448;2023-09-18T01:15:44;99683.66;;;15.18;100.00
60832;BME280;46665;51.558;-0.448;2023-09-18T01:18:29;99668.38;;;15.17;100.00
60832;BME280;46665;51.558;-0.448;2023-09-18T01:21:13;99663.44;;;15.11;100.00
60832;BME280;46665;51.558;-0.448;2023-09-18T01:23:57;99658.75;;;15.11;100.00
60832;BME280;46665;51.558;-0.448;2023-09-18T01:26:40;99652.94;;;15.13;100.00
60832;BME280;46665;51.558;-0.448;2023-09-18T01:29:24;99647.47;;;15.13;100.00
60832;BME280;46665;51.558;-0.448;2023-09-18T01:32:08;99642.31;;;15.11;100.00
60832;BME280;46665;51.558;-0.448;2023-09-18T01:34:54;99636.81;;;15.11;100.00
60832;BME280;46665;51.558;-0.448;2023-09-18T01:37:40;99628.16;;;15.09;100.00
60832;BME280;46665;51.558;-0.448;2023-09-18T01:40:25;99606.09;;;15.06;100.00
60832;BME280;46665;51.558;-0.448;2023-09-18T01:43:09;99589.81;;;15.09;100.00
60832;BME280;46665;51.558;-0.448;2023-09-18T01:45:54;99565.47;;;15.08;100.00
60832;BME280;46665;51.558;-0.448;2023-09-18T01:48:45;99567.53;;;15.11;100.00
60832;BME280;46665;51.558;-0.448;2023-09-18T01:51:29;99574.84;;;15.07;100.00
60832;BME280;46665;51.558;-0.448;2023-09-18T01:54:14;99572.63;;;15.00;100.00
60832;BME280;46665;51.558;-0.448;2023-09-18T01:56:58;99590.53;;;14.98;100.00
60832;BME280;46665;51.558;-0.448;2023-09-18T01:59:42;99590.22;;;14.99;100.00
60832;BME280;46665;51.558;-0.448;2023-09-18T02:02:27;99580.38;;;14.98;100.00
60832;BME280;46665;51.558;-0.448;2023-09-18T02:05:11;99574.59;;;15.00;100.00
60832;BME280;46665;51.558;-0.448;2023-09-18T02:07:55;99584.84;;;15.03;100.00
60832;BME280;46665;51.558;-0.448;2023-09-18T02:10:39;99595.56;;;14.95;100.00
60832;BME280;46665;51.558;-0.448;2023-09-18T02:13:24;99598.19;;;14.92;100.00
60832;BME280;46665;51.558;-0.448;2023-09-18T02:16:08;99599.97;;;14.88;100.00
60832;BME280;46665;51.558;-0.448;2023-09-18T02:18:54;99584.00;;;14.90;100.00
60832;BME280;46665;51.558;-0.448;2023-09-18T02:21:40;99577.75;;;14.89;100.00
60832;BME280;46665;51.558;-0.448;2023-09-18T02:24:24;99576.13;;;14.88;100.00
60832;BME280;46665;51.558;-0.448;2023-09-18T02:27:08;99556.03;;;14.84;100.00
60832;BME280;46665;51.558;-0.448;2023-09-18T02:29:53;99555.56;;;14.82;100.00
60832;BME280;46665;51.558;-0.448;2023-09-18T02:32:37;99553.03;;;14.77;100.00
60832;BME280;46665;51.558;-0.448;2023-09-18T02:35:21;99541.50;;;14.71;100.00
60832;BME280;46665;51.558;-0.448;2023-09-18T02:38:05;99537.47;;;14.69;100.00
60832;BME280;46665;51.558;-0.448;2023-09-18T02:40:49;99532.00;;;14.69;100.00
60832;BME280;46665;51.558;-0.448;2023-09-18T02:43:33;99531.06;;;14.65;100.00
60832;BME280;46665;51.558;-0.448;2023-09-18T02:46:17;99515.31;;;14.62;100.00
60832;BME280;46665;51.558;-0.448;2023-09-18T02:49:00;99519.84;;;14.58;100.00
60832;BME280;46665;51.558;-0.448;2023-09-18T02:51:44;99537.41;;;14.57;100.00
60832;BME280;46665;51.558;-0.448;2023-09-18T02:54:28;99540.00;;;14.53;100.00
60832;BME280;46665;51.558;-0.448;2023-09-18T02:57:12;99541.44;;;14.50;100.00
60832;BME280;46665;51.558;-0.448;2023-09-18T02:59:57;99535.97;;;14.50;100.00
60832;BME280;46665;51.558;-0.448;2023-09-18T03:02:41;99544.19;;;14.50;100.00
60832;BME280;46665;51.558;-0.448;2023-09-18T03:05:25;99546.13;;;14.50;100.00
60832;BME280;46665;51.558;-0.448;2023-09-18T03:08:11;99557.88;;;14.50;100.00
60832;BME280;46665;51.558;-0.448;2023-09-18T03:10:55;99549.06;;;14.45;100.00
60832;BME280;46665;51.558;-0.448;2023-09-18T03:13:46;99568.69;;;14.47;100.00
60832;BME280;46665;51.558;-0.448;2023-09-18T03:16:30;99573.38;;;14.46;100.00
60832;BME280;46665;51.558;-0.448;2023-09-18T03:19:17;99563.91;;;14.44;100.00
60832;BME280;46665;51.558;-0.448;2023-09-18T03:22:00;99558.91;;;14.46;100.00
60832;BME280;46665;51.558;-0.448;2023-09-18T03:24:45;99558.75;;;14.42;100.00
60832;BME280;46665;51.558;-0.448;2023-09-18T03:27:29;99555.41;;;14.37;100.00
60832;BME280;46665;51.558;-0.448;2023-09-18T03:30:15;99556.09;;;14.34;100.00
60832;BME280;46665;51.558;-0.448;2023-09-18T03:33:02;99562.94;;;14.40;100.00
60832;BME280;46665;51.558;-0.448;2023-09-18T03:35:51;99566.03;;;14.38;100.00
60832;BME280;46665;51.558;-0.448;2023-09-18T03:38:36;99560.88;;;14.37;100.00
60832;BME280;46665;51.558;-0.448;2023-09-18T03:41:20;99566.03;;;14.38;100.00
60832;BME280;46665;51.558;-0.448;2023-09-18T03:44:04;99567.75;;;14.43;100.00
60832;BME280;46665;51.558;-0.448;2023-09-18T03:46:48;99574.97;;;14.47;100.00
60832;BME280;46665;51.558;-0.448;2023-09-18T03:49:32;99579.78;;;14.50;100.00
60832;BME280;46665;51.558;-0.448;2023-09-18T03:52:16;99579.94;;;14.54;100.00
60832;BME280;46665;51.558;-0.448;2023-09-18T03:55:00;99580.06;;;14.58;100.00
60832;BME280;46665;51.558;-0.448;2023-09-18T03:57:44;99584.63;;;14.54;100.00
60832;BME280;46665;51.558;-0.448;2023-09-18T04:00:31;99570.75;;;14.50;100.00
60832;BME280;46665;51.558;-0.448;2023-09-18T04:03:15;99573.19;;;14.51;100.00
60832;BME280;46665;51.558;-0.448;2023-09-18T04:05:58;99561.75;;;14.49;100.00
60832;BME280;46665;51.558;-0.448;2023-09-18T04:08:43;99556.91;;;14.55;100.00
60832;BME280;46665;51.558;-0.448;2023-09-18T04:11:28;99552.22;;;14.56;100.00
60832;BME280;46665;51.558;-0.448;2023-09-18T04:14:15;99554.16;;;14.55;100.00
60832;BME280;46665;51.558;-0.448;2023-09-18T04:16:59;99560.44;;;14.56;100.00
60832;BME280;46665;51.558;-0.448;2023-09-18T04:19:46;99563.53;;;14.54;100.00
60832;BME280;46665;51.558;-0.448;2023-09-18T04:22:30;99564.31;;;14.55;100.00
60832;BME280;46665;51.558;-0.448;2023-09-18T04:25:15;99556.13;;;14.55;100.00
60832;BME280;46665;51.558;-0.448;2023-09-18T04:27:59;99557.25;;;14.54;100.00
60832;BME280;46665;51.558;-0.448;2023-09-18T04:30:44;99542.44;;;14.55;100.00
60832;BME280;46665;51.558;-0.448;2023-09-18T04:33:28;99544.47;;;14.58;100.00
60832;BME280;46665;51.558;-0.448;2023-09-18T04:36:12;99546.56;;;14.61;100.00
60832;BME280;46665;51.558;-0.448;2023-09-18T04:38:57;99545.44;;;14.62;100.00
60832;BME280;46665;51.558;-0.448;2023-09-18T04:41:40;99536.22;;;14.66;100.00
60832;BME280;46665;51.558;-0.448;2023-09-18T04:44:24;99543.41;;;14.71;100.00
60832;BME280;46665;51.558;-0.448;2023-09-18T04:47:08;99547.59;;;14.68;100.00
60832;BME280;46665;51.558;-0.448;2023-09-18T04:49:52;99544.66;;;14.73;100.00
60832;BME280;46665;51.558;-0.448;2023-09-18T04:52:36;99539.19;;;14.73;100.00
60832;BME280;46665;51.558;-0.448;2023-09-18T04:55:20;99541.28;;;14.77;100.00
60832;BME280;46665;51.558;-0.448;2023-09-18T04:58:05;99540.13;;;14.78;100.00
60832;BME280;46665;51.558;-0.448;2023-09-18T05:00:54;99545.75;;;14.81;100.00
60832;BME280;46665;51.558;-0.448;2023-09-18T05:03:38;99545.06;;;14.84;100.00
60832;BME280;46665;51.558;-0.448;2023-09-18T05:06:22;99537.19;;;14.83;100.00
60832;BME280;46665;51.558;-0.448;2023-09-18T05:09:06;99544.28;;;14.84;100.00
60832;BME280;46665;51.558;-0.448;2023-09-18T05:11:51;99541.34;;;14.89;100.00
60832;BME280;46665;51.558;-0.448;2023-09-18T05:14:35;99542.25;;;14.93;100.00
60832;BME280;46665;51.558;-0.448;2023-09-18T05:17:19;99541.66;;;14.87;100.00
60832;BME280;46665;51.558;-0.448;2023-09-18T05:20:03;99538.59;;;14.89;100.00
60832;BME280;46665;51.558;-0.448;2023-09-18T05:22:48;99533.22;;;14.92;100.00
60832;BME280;46665;51.558;-0.448;2023-09-18T05:25:35;99537.56;;;14.93;100.00
60832;BME280;46665;51.558;-0.448;2023-09-18T05:28:21;99530.03;;;14.90;100.00
60832;BME280;46665;51.558;-0.448;2023-09-18T05:31:05;99526.50;;;14.90;100.00
60832;BME280;46665;51.558;-0.448;2023-09-18T05:33:49;99530.97;;;14.94;100.00
60832;BME280;46665;51.558;-0.448;2023-09-18T05:36:33;99526.97;;;14.92;100.00
60832;BME280;46665;51.558;-0.448;2023-09-18T05:39:17;99519.66;;;14.96;100.00
60832;BME280;46665;51.558;-0.448;2023-09-18T05:42:01;99540.09;;;14.99;100.00
60832;BME280;46665;51.558;-0.448;2023-09-18T05:44:45;99533.81;;;14.98;100.00
60832;BME280;46665;51.558;-0.448;2023-09-18T05:47:31;99526.06;;;15.00;100.00
60832;BME280;46665;51.558;-0.448;2023-09-18T05:50:16;99529.13;;;14.99;100.00
60832;BME280;46665;51.558;-0.448;2023-09-18T05:53:01;99530.41;;;15.01;100.00
60832;BME280;46665;51.558;-0.448;2023-09-18T05:55:48;99528.47;;;15.02;100.00
60832;BME280;46665;51.558;-0.448;2023-09-18T05:58:32;99531.22;;;15.02;100.00
60832;BME280;46665;51.558;-0.448;2023-09-18T06:01:16;99527.88;;;14.96;100.00
60832;BME280;46665;51.558;-0.448;2023-09-18T06:04:00;99530.81;;;14.91;100.00
60832;BME280;46665;51.558;-0.448;2023-09-18T06:06:46;99529.69;;;14.92;100.00
60832;BME280;46665;51.558;-0.448;2023-09-18T06:09:30;99535.03;;;14.88;100.00
60832;BME280;46665;51.558;-0.448;2023-09-18T06:12:14;99529.13;;;14.86;100.00
60832;BME280;46665;51.558;-0.448;2023-09-18T06:14:58;99522.38;;;14.84;100.00
60832;BME280;46665;51.558;-0.448;2023-09-18T06:17:43;99524.28;;;14.83;100.00
60832;BME280;46665;51.558;-0.448;2023-09-18T06:20:27;99523.75;;;14.90;100.00
60832;BME280;46665;51.558;-0.448;2023-09-18T06:23:11;99531.66;;;14.91;100.00
60832;BME280;46665;51.558;-0.448;2023-09-18T06:25:56;99531.66;;;14.91;100.00
60832;BME280;46665;51.558;-0.448;2023-09-18T06:28:41;99526.28;;;14.95;100.00
60832;BME280;46665;51.558;-0.448;2023-09-18T06:31:25;99536.69;;;15.02;100.00
60832;BME280;46665;51.558;-0.448;2023-09-18T06:34:10;99537.97;;;15.04;100.00
60832;BME280;46665;51.558;-0.448;2023-09-18T06:36:54;99541.28;;;15.10;100.00
60832;BME280;46665;51.558;-0.448;2023-09-18T06:39:38;99542.41;;;15.09;100.00
60832;BME280;46665;51.558;-0.448;2023-09-18T06:42:23;99543.00;;;15.14;100.00
60832;BME280;46665;51.558;-0.448;2023-09-18T06:45:07;99546.19;;;15.16;100.00
60832;BME280;46665;51.558;-0.448;2023-09-18T06:47:51;99536.84;;;15.17;100.00
60832;BME280;46665;51.558;-0.448;2023-09-18T06:50:36;99535.00;;;15.22;100.00
60832;BME280;46665;51.558;-0.448;2023-09-18T06:53:22;99533.44;;;15.21;100.00
60832;BME280;46665;51.558;-0.448;2023-09-18T06:56:06;99533.66;;;15.15;100.00
60832;BME280;46665;51.558;-0.448;2023-09-18T06:58:50;99535.38;;;15.20;100.00
60832;BME280;46665;51.558;-0.448;2023-09-18T07:01:39;99521.09;;;15.14;100.00
60832;BME280;46665;51.558;-0.448;2023-09-18T07:04:24;99525.75;;;15.14;100.00
60832;BME280;46665;51.558;-0.448;2023-09-18T07:07:08;99528.28;;;15.19;100.00
60832;BME280;46665;51.558;-0.448;2023-09-18T07:09:53;99526.69;;;15.18;100.00
60832;BME280;46665;51.558;-0.448;2023-09-18T07:12:36;99516.53;;;15.18;100.00
60832;BME280;46665;51.558;-0.448;2023-09-18T07:15:21;99506.34;;;15.19;100.00
60832;BME280;46665;51.558;-0.448;2023-09-18T07:18:05;99513.09;;;15.22;100.00
60832;BME280;46665;51.558;-0.448;2023-09-18T07:20:49;99519.03;;;15.24;100.00
60832;BME280;46665;51.558;-0.448;2023-09-18T07:23:33;99522.78;;;15.19;100.00
60832;BME280;46665;51.558;-0.448;2023-09-18T07:26:20;99522.00;;;15.18;100.00
60832;BME280;46665;51.558;-0.448;2023-09-18T07:29:04;99527.16;;;15.20;100.00
60832;BME280;46665;51.558;-0.448;2023-09-18T07:31:48;99527.69;;;15.13;100.00
60832;BME280;46665;51.558;-0.448;2023-09-18T07:34:32;99527.16;;;15.20;100.00
60832;BME280;46665;51.558;-0.448;2023-09-18T07:37:16;99521.91;;;15.27;100.00
60832;BME280;46665;51.558;-0.448;2023-09-18T07:40:05;99531.28;;;15.38;100.00
60832;BME280;46665;51.558;-0.448;2023-09-18T07:42:50;99523.44;;;15.37;100.00
60832;BME280;46665;51.558;-0.448;2023-09-18T07:45:34;99526.97;;;15.50;100.00
60832;BME280;46665;51.558;-0.448;2023-09-18T07:48:18;99524.56;;;15.48;100.00
60832;BME280;46665;51.558;-0.448;2023-09-18T07:51:03;99518.06;;;15.53;100.00
60832;BME280;46665;51.558;-0.448;2023-09-18T07:53:48;99514.63;;;15.56;100.00
60832;BME280;46665;51.558;-0.448;2023-09-18T07:56:32;99522.63;;;15.49;100.00
60832;BME280;46665;51.558;-0.448;2023-09-18T07:59:17;99517.34;;;15.44;100.00
60832;BME280;46665;51.558;-0.448;2023-09-18T08:02:02;99514.34;;;15.24;100.00
60832;BME280;46665;51.558;-0.448;2023-09-18T08:04:46;99516.06;;;15.29;100.00
60832;BME280;46665;51.558;-0.448;2023-09-18T08:07:30;99513.22;;;15.25;100.00
60832;BME280;46665;51.558;-0.448;2023-09-18T08:10:15;99519.63;;;15.17;100.00
60832;BME280;46665;51.558;-0.448;2023-09-18T08:12:59;99517.19;;;15.15;100.00
60832;BME280;46665;51.558;-0.448;2023-09-18T08:15:43;99519.16;;;15.15;100.00
60832;BME280;46665;51.558;-0.448;2023-09-18T08:18:27;99522.94;;;15.23;100.00
60832;BME280;46665;51.558;-0.448;2023-09-18T08:21:12;99504.75;;;15.18;100.00
60832;BME280;46665;51.558;-0.448;2023-09-18T08:23:57;99503.03;;;15.13;100.00
60832;BME280;46665;51.558;-0.448;2023-09-18T08:26:41;99507.72;;;15.13;100.00
60832;BME280;46665;51.558;-0.448;2023-09-18T08:29:26;99510.25;;;15.18;100.00
60832;BME280;46665;51.558;-0.448;2023-09-18T08:32:10;99494.84;;;15.26;100.00
60832;BME280;46665;51.558;-0.448;2023-09-18T08:34:54;99490.63;;;15.41;100.00
60832;BME280;46665;51.558;-0.448;2023-09-18T08:37:40;99485.41;;;15.60;100.00
60832;BME280;46665;51.558;-0.448;2023-09-18T08:40:26;99473.28;;;15.61;100.00
60832;BME280;46665;51.558;-0.448;2023-09-18T08:43:12;99484.13;;;15.45;100.00
60832;BME280;46665;51.558;-0.448;2023-09-18T08:45:59;99486.88;;;15.45;100.00
60832;BME280;46665;51.558;-0.448;2023-09-18T08:48:45;99475.22;;;15.36;100.00
60832;BME280;46665;51.558;-0.448;2023-09-18T08:51:30;99465.72;;;15.33;100.00
60832;BME280;46665;51.558;-0.448;2023-09-18T08:54:14;99473.63;;;15.47;100.00
60832;BME280;46665;51.558;-0.448;2023-09-18T08:56:59;99468.59;;;15.49;100.00
60832;BME280;46665;51.558;-0.448;2023-09-18T08:59:43;99463.69;;;15.55;100.00
60832;BME280;46665;51.558;-0.448;2023-09-18T09:02:28;99461.38;;;15.57;100.00
60832;BME280;46665;51.558;-0.448;2023-09-18T09:05:12;99464.81;;;15.54;100.00
60832;BME280;46665;51.558;-0.448;2023-09-18T09:07:56;99461.53;;;15.60;100.00
60832;BME280;46665;51.558;-0.448;2023-09-18T09:10:40;99453.38;;;15.64;100.00
60832;BME280;46665;51.558;-0.448;2023-09-18T09:13:25;99454.88;;;15.61;100.00
60832;BME280;46665;51.558;-0.448;2023-09-18T09:16:13;99444.63;;;15.71;100.00
60832;BME280;46665;51.558;-0.448;2023-09-18T09:18:57;99439.69;;;15.76;100.00
60832;BME280;46665;51.558;-0.448;2023-09-18T09:21:42;99429.75;;;15.72;100.00
60832;BME280;46665;51.558;-0.448;2023-09-18T09:24:37;99435.25;;;15.72;100.00
60832;BME280;46665;51.558;-0.448;2023-09-18T09:27:21;99418.91;;;15.75;100.00
60832;BME280;46665;51.558;-0.448;2023-09-18T09:30:06;99426.22;;;15.71;100.00
60832;BME280;46665;51.558;-0.448;2023-09-18T09:32:52;99426.56;;;15.70;100.00
60832;BME280;46665;51.558;-0.448;2023-09-18T09:35:37;99420.03;;;15.74;100.00
60832;BME280;46665;51.558;-0.448;2023-09-18T09:38:29;99412.72;;;15.91;100.00
60832;BME280;46665;51.558;-0.448;2023-09-18T09:41:15;99405.19;;;15.88;100.00
60832;BME280;46665;51.558;-0.448;2023-09-18T09:44:00;99399.78;;;15.91;100.00
60832;BME280;46665;51.558;-0.448;2023-09-18T09:46:48;99403.84;;;16.10;100.00
60832;BME280;46665;51.558;-0.448;2023-09-18T09:49:45;99390.25;;;16.13;100.00
60832;BME280;46665;51.558;-0.448;2023-09-18T09:52:33;99394.56;;;16.14;100.00
60832;BME280;46665;51.558;-0.448;2023-09-18T09:55:25;99399.50;;;16.09;100.00
60832;BME280;46665;51.558;-0.448;2023-09-18T09:58:11;99385.31;;;16.19;100.00
60832;BME280;46665;51.558;-0.448;2023-09-18T10:00:58;99382.59;;;16.35;100.00
60832;BME280;46665;51.558;-0.448;2023-09-18T10:03:46;99376.13;;;16.43;100.00
60832;BME280;46665;51.558;-0.448;2023-09-18T10:06:33;99364.47;;;16.46;100.00
60832;BME280;46665;51.558;-0.448;2023-09-18T10:09:19;99355.53;;;16.49;100.00
60832;BME280;46665;51.558;-0.448;2023-09-18T10:12:12;99355.94;;;16.35;100.00
60832;BME280;46665;51.558;-0.448;2023-09-18T10:14:59;99354.34;;;16.34;100.00
60832;BME280;46665;51.558;-0.448;2023-09-18T10:17:46;99356.75;;;16.36;100.00
60832;BME280;46665;51.558;-0.448;2023-09-18T10:20:32;99352.66;;;16.30;100.00
60832;BME280;46665;51.558;-0.448;2023-09-18T10:27:03;99346.63;;;16.24;100.00
60832;BME280;46665;51.558;-0.448;2023-09-18T10:29:49;99344.72;;;16.12;100.00
60832;BME280;46665;51.558;-0.448;2023-09-18T10:32:33;99344.59;;;16.21;100.00
60832;BME280;46665;51.558;-0.448;2023-09-18T10:35:18;99348.72;;;16.15;100.00
60832;BME280;46665;51.558;-0.448;2023-09-18T10:38:05;99347.84;;;16.11;100.00
60832;BME280;46665;51.558;-0.448;2023-09-18T10:40:51;99340.66;;;16.06;100.00
60832;BME280;46665;51.558;-0.448;2023-09-18T10:43:36;99346.00;;;16.02;100.00
60832;BME280;46665;51.558;-0.448;2023-09-18T10:46:20;99333.91;;;16.03;100.00
60832;BME280;46665;51.558;-0.448;2023-09-18T10:49:05;99344.13;;;15.91;100.00
60832;BME280;46665;51.558;-0.448;2023-09-18T10:51:53;99336.94;;;15.86;100.00
60832;BME280;46665;51.558;-0.448;2023-09-18T10:54:38;99338.53;;;15.87;100.00
60832;BME280;46665;51.558;-0.448;2023-09-18T10:57:23;99336.44;;;15.96;100.00
60832;BME280;46665;51.558;-0.448;2023-09-18T11:00:07;99344.13;;;15.91;100.00
60832;BME280;46665;51.558;-0.448;2023-09-18T11:06:07;99337.16;;;15.93;100.00
60832;BME280;46665;51.558;-0.448;2023-09-18T11:08:58;99335.19;;;15.94;100.00
60832;BME280;46665;51.558;-0.448;2023-09-18T11:11:45;99343.09;;;15.95;100.00
60832;BME280;46665;51.558;-0.448;2023-09-18T11:14:57;99340.44;;;15.99;100.00
60832;BME280;46665;51.558;-0.448;2023-09-18T11:17:41;99339.16;;;16.09;100.00
60832;BME280;46665;51.558;-0.448;2023-09-18T11:20:25;99337.19;;;16.09;100.00
60832;BME280;46665;51.558;-0.448;2023-09-18T11:25:55;99335.69;;;16.12;100.00
60832;BME280;46665;51.558;-0.448;2023-09-18T11:28:40;99332.25;;;16.15;100.00
60832;BME280;46665;51.558;-0.448;2023-09-18T11:34:35;99334.69;;;16.04;100.00
60832;BME280;46665;51.558;-0.448;2023-09-18T11:37:21;99337.50;;;15.92;100.00
60832;BME280;46665;51.558;-0.448;2023-09-18T11:40:06;99336.25;;;15.89;100.00
60832;BME280;46665;51.558;-0.448;2023-09-18T11:46:18;99346.00;;;16.02;100.00
60832;BME280;46665;51.558;-0.448;2023-09-18T11:49:03;99350.56;;;16.11;100.00
60832;BME280;46665;51.558;-0.448;2023-09-18T11:51:50;99344.13;;;16.19;100.00
60832;BME280;46665;51.558;-0.448;2023-09-18T11:54:34;99347.41;;;16.24;100.00
60832;BME280;46665;51.558;-0.448;2023-09-18T11:57:19;99346.63;;;16.24;100.00
60832;BME280;46665;51.558;-0.448;2023-09-18T12:00:04;99351.19;;;16.20;100.00
60832;BME280;46665;51.558;-0.448;2023-09-18T12:02:55;99361.88;;;16.09;100.00
60832;BME280;46665;51.558;-0.448;2023-09-18T12:05:41;99366.13;;;16.07;100.00
60832;BME280;46665;51.558;-0.448;2023-09-18T12:08:26;99377.09;;;16.07;100.00
60832;BME280;46665;51.558;-0.448;2023-09-18T12:11:13;99365.19;;;16.15;100.00
60832;BME280;46665;51.558;-0.448;2023-09-18T12:14:03;99376.22;;;16.31;100.00
60832;BME280;46665;51.558;-0.448;2023-09-18T12:16:48;99379.66;;;16.28;100.00
60832;BME280;46665;51.558;-0.448;2023-09-18T12:19:34;99400.09;;;16.30;100.00
60832;BME280;46665;51.558;-0.448;2023-09-18T12:22:29;99394.06;;;16.24;100.00
60832;BME280;46665;51.558;-0.448;2023-09-18T12:25:15;99394.44;;;16.23;100.00
60832;BME280;46665;51.558;-0.448;2023-09-18T12:28:01;99403.94;;;16.25;100.00
60832;BME280;46665;51.558;-0.448;2023-09-18T12:30:45;99396.47;;;16.26;100.00
60832;BME280;46665;51.558;-0.448;2023-09-18T12:33:38;99402.31;;;16.24;100.00
60832;BME280;46665;51.558;-0.448;2023-09-18T12:36:23;99407.22;;;16.31;100.00
60832;BME280;46665;51.558;-0.448;2023-09-18T12:39:09;99404.47;;;16.31;100.00
60832;BME280;46665;51.558;-0.448;2023-09-18T12:41:54;99416.00;;;16.37;100.00
60832;BME280;46665;51.558;-0.448;2023-09-18T12:44:40;99411.66;;;16.36;100.00
60832;BME280;46665;51.558;-0.448;2023-09-18T12:47:25;99417.69;;;16.41;100.00
60832;BME280;46665;51.558;-0.448;2023-09-18T12:50:13;99417.47;;;16.34;100.00
60832;BME280;46665;51.558;-0.448;2023-09-18T12:53:27;99413.00;;;16.42;100.00
60832;BME280;46665;51.558;-0.448;2023-09-18T12:56:13;99420.78;;;16.40;100.00
60832;BME280;46665;51.558;-0.448;2023-09-18T12:58:58;99419.13;;;16.51;100.00
60832;BME280;46665;51.558;-0.448;2023-09-18T13:01:47;99422.34;;;16.69;100.00
60832;BME280;46665;51.558;-0.448;2023-09-18T13:04:32;99431.09;;;16.87;100.00
60832;BME280;46665;51.558;-0.448;2023-09-18T13:07:21;99446.88;;;16.90;100.00
60832;BME280;46665;51.558;-0.448;2023-09-18T13:10:06;99433.50;;;17.04;100.00
60832;BME280;46665;51.558;-0.448;2023-09-18T13:12:53;99445.03;;;16.94;100.00
60832;BME280;46665;51.558;-0.448;2023-09-18T13:15:39;99453.53;;;16.89;100.00
60832;BME280;46665;51.558;-0.448;2023-09-18T13:18:23;99459.28;;;16.84;100.00
60832;BME280;46665;51.558;-0.448;2023-09-18T13:21:11;99467.53;;;17.00;100.00
60832;BME280;46665;51.558;-0.448;2023-09-18T13:23:55;99472.25;;;17.15;100.00
60832;BME280;46665;51.558;-0.448;2023-09-18T13:26:39;99474.81;;;17.08;100.00
60832;BME280;46665;51.558;-0.448;2023-09-18T13:29:23;99464.69;;;16.96;100.00
60832;BME280;46665;51.558;-0.448;2023-09-18T13:32:07;99494.28;;;16.87;100.00
60832;BME280;46665;51.558;-0.448;2023-09-18T13:34:51;99477.44;;;16.88;100.00
60832;BME280;46665;51.558;-0.448;2023-09-18T13:37:37;99493.31;;;16.79;100.00
60832;BME280;46665;51.558;-0.448;2023-09-18T13:40:21;99493.53;;;16.74;100.00
60832;BME280;46665;51.558;-0.448;2023-09-18T13:43:08;99511.25;;;16.77;100.00
60832;BME280;46665;51.558;-0.448;2023-09-18T13:45:52;99505.81;;;16.64;100.00
60832;BME280;46665;51.558;-0.448;2023-09-18T13:48:39;99536.22;;;16.72;100.00
60832;BME280;46665;51.558;-0.448;2023-09-18T13:51:23;99515.75;;;16.69;100.00
60832;BME280;46665;51.558;-0.448;2023-09-18T13:54:07;99529.81;;;16.67;100.00
60832;BME280;46665;51.558;-0.448;2023-09-18T13:56:51;99549.16;;;16.71;100.00
60832;BME280;46665;51.558;-0.448;2023-09-18T13:59:36;99554.41;;;16.76;100.00
60832;BME280;46665;51.558;-0.448;2023-09-18T14:02:21;99559.00;;;16.72;100.00
60832;BME280;46665;51.558;-0.448;2023-09-18T14:05:08;99553.16;;;16.74;100.00
60832;BME280;46665;51.558;-0.448;2023-09-18T14:07:53;99571.00;;;16.80;100.00
60832;BME280;46665;51.558;-0.448;2023-09-18T14:10:44;99580.41;;;16.79;100.00
60832;BME280;46665;51.558;-0.448;2023-09-18T14:13:27;99571.34;;;16.66;100.00
60832;BME280;46665;51.558;-0.448;2023-09-18T14:16:11;99582.78;;;16.68;100.00
60832;BME280;46665;51.558;-0.448;2023-09-18T14:18:58;99586.38;;;16.68;100.00
60832;BME280;46665;51.558;-0.448;2023-09-18T14:21:42;99586.66;;;16.92;100.00
60832;BME280;46665;51.558;-0.448;2023-09-18T14:24:27;99592.41;;;17.15;100.00
60832;BME280;46665;51.558;-0.448;2023-09-18T14:27:11;99591.00;;;17.21;100.00
60832;BME280;46665;51.558;-0.448;2023-09-18T14:29:56;99591.56;;;17.42;100.00